Flight Track Log - Related Links

Times and Time Zones

All times are in EDT time to prevent confusion due to time zone crossing. See the KEE202 flight status page for this flight to view local times or setup timezone preferences in your user account.

Time Position Orientation Groundspeed Altitude Reporting Facility
EDT Latitude Longitude Course Direction KTS MPH feet Rate Location/Type
Thu 05:11:49 PM 55.7833 -97.8500 246° West 120 138 1,000  Level Winnipeg Center
Thu 05:12:49 PM 55.7667 -97.9167 246° West 140 161 3,000 2,000 Climbing Winnipeg Center
Thu 05:13:49 PM 55.7333 -97.8833 151° Southeast 140 161 5,000 1,950 Climbing Winnipeg Center
Thu 05:14:49 PM 55.6833 -97.8500 159° South 150 173 6,900 1,900 Climbing Winnipeg Center
Thu 05:15:49 PM 55.6333 -97.8500 180° South 160 184 8,800 1,950 Climbing Winnipeg Center
Thu 05:16:49 PM 55.6000 -97.8167 151° Southeast 170 196 10,800 1,800 Climbing Winnipeg Center
Thu 05:17:49 PM 55.5500 -97.8167 180° South 170 196 12,400 1,600 Climbing Winnipeg Center
Thu 05:18:49 PM 55.5000 -97.8167 180° South 180 207 14,000 1,500 Climbing Winnipeg Center
Thu 05:19:49 PM 55.4500 -97.8167 180° South 190 219 15,400 1,250 Climbing Winnipeg Center
Thu 05:20:49 PM 55.3833 -97.8167 180° South 200 230 16,500 1,200 Climbing Winnipeg Center
Thu 05:21:49 PM 55.3333 -97.7833 159° South 200 230 17,800 1,150 Climbing Winnipeg Center
Thu 05:22:49 PM 55.2667 -97.7833 180° South 200 230 18,800 1,100 Climbing Winnipeg Center
Thu 05:23:49 PM 55.2167 -97.7833 180° South 210 242 20,000 1,100 Climbing Winnipeg Center
Thu 05:24:49 PM 55.1667 -97.7833 180° South 210 242 21,000 500 Climbing Winnipeg Center
Thu 05:25:49 PM 55.1000 -97.7833 180° South 230 265 21,000 50 Level Winnipeg Center
Thu 05:26:49 PM 55.0333 -97.7833 180° South 260 299 21,100 150 Climbing Winnipeg Center
Thu 05:27:49 PM 54.9500 -97.7500 167° South 270 311 21,300 700 Climbing Winnipeg Center
Thu 05:28:49 PM 54.8833 -97.7500 180° South 260 299 22,500 1,000 Climbing Winnipeg Center
Thu 05:29:49 PM 54.8167 -97.7500 180° South 230 265 23,300 750 Climbing Winnipeg Center
Thu 05:30:49 PM 54.7500 -97.7500 180° South 230 265 24,000 700 Climbing Winnipeg Center
Thu 05:31:49 PM 54.6833 -97.7500 180° South 240 276 24,700 550 Climbing Winnipeg Center
Thu 05:32:49 PM 54.6167 -97.7500 180° South 240 276 25,100 200 Climbing Winnipeg Center
Thu 05:33:49 PM 54.5500 -97.7167 164° South 260 299 25,100 50 Level Winnipeg Center
Thu 05:34:49 PM 54.4667 -97.7167 180° South 270 311 25,200  Climbing Winnipeg Center
Thu 05:35:49 PM 54.4000 -97.7167 180° South 280 322 25,100 -50 Descending Winnipeg Center
Thu 05:36:49 PM 54.3167 -97.7167 180° South 280 322 25,100 50 Level Winnipeg Center
Thu 05:37:49 PM 54.2333 -97.6833 167° South 280 322 25,200  Climbing Winnipeg Center
Thu 05:38:49 PM 54.1500 -97.6833 180° South 280 322 25,100  Descending Winnipeg Center
Thu 05:39:49 PM 54.0833 -97.6833 180° South 290 334 25,200  Climbing Winnipeg Center
Thu 05:40:49 PM 54.0000 -97.6833 180° South 290 334 25,100 -50 Descending Winnipeg Center
Thu 05:41:49 PM 53.9167 -97.6500 167° South 290 334 25,100  Level Winnipeg Center
Thu 05:42:49 PM 53.8333 -97.6500 180° South 290 334 25,100  Level Winnipeg Center
Thu 05:43:49 PM 53.7667 -97.6500 180° South 290 334 25,100  Level Winnipeg Center
Thu 05:44:49 PM 53.6833 -97.6500 180° South 290 334 25,100 50 Level Winnipeg Center
Thu 05:45:49 PM 53.6000 -97.6167 167° South 290 334 25,200  Climbing Winnipeg Center
Thu 05:46:49 PM 53.5167 -97.6167 180° South 290 334 25,100 -50 Descending Winnipeg Center
Thu 05:47:49 PM 53.4333 -97.5833 167° South 290 334 25,100  Level Winnipeg Center
Thu 05:48:49 PM 53.3667 -97.5833 180° South 290 334 25,100  Level Winnipeg Center
Thu 05:49:49 PM 53.2667 -97.5833 180° South 290 334 25,100  Level Winnipeg Center
Thu 05:50:49 PM 53.1833 -97.5500 167° South 290 334 25,100  Level Winnipeg Center
Thu 05:51:49 PM 53.1000 -97.5500 180° South 280 322 25,100  Level Winnipeg Center
Thu 05:52:49 PM 53.0333 -97.5500 180° South 280 322 25,100  Level Winnipeg Center
Thu 05:53:49 PM 52.9500 -97.5167 166° South 280 322 25,100  Level Winnipeg Center
Thu 05:54:49 PM 52.8667 -97.5167 180° South 280 322 25,100 50 Level Winnipeg Center
Thu 05:55:49 PM 52.7833 -97.5167 180° South 280 322 25,200  Climbing Winnipeg Center
Thu 05:56:49 PM 52.7000 -97.5167 180° South 290 334 25,100 -50 Descending Winnipeg Center
Thu 05:57:49 PM 52.6333 -97.4833 163° South 280 322 25,100  Level Winnipeg Center
Thu 05:58:49 PM 52.5500 -97.4833 180° South 280 322 25,100  Level Winnipeg Center
Thu 05:59:49 PM 52.4667 -97.4833 180° South 280 322 25,100 50 Level Winnipeg Center
Thu 06:00:49 PM 52.4000 -97.4833 180° South 290 334 25,200  Climbing Winnipeg Center
Thu 06:01:49 PM 52.3167 -97.4500 166° South 280 322 25,100  Descending Winnipeg Center
Thu 06:02:49 PM 52.2333 -97.4500 180° South 280 322 25,200 50 Climbing Winnipeg Center
Thu 06:03:49 PM 52.1500 -97.4500 180° South 290 334 25,200  Level Winnipeg Center
Thu 06:04:49 PM 52.0833 -97.4333 171° South 290 334 25,200  Level Winnipeg Center
Thu 06:05:49 PM 52.0000 -97.4000 166° South 290 334 25,200  Level Winnipeg Center
Thu 06:06:49 PM 51.9333 -97.3667 163° South 280 322 25,200  Level Winnipeg Center
Thu 06:08:49 PM 51.7667 -97.3500 176° South 290 334 25,200  Level Winnipeg Center
Thu 06:09:49 PM 51.6833 -97.3167 166° South 290 334 25,200  Level Winnipeg Center
Thu 06:10:49 PM 51.6000 -97.3167 180° South 290 334 25,200  Level Winnipeg Center
Thu 06:11:49 PM 51.5333 -97.2833 163° South 290 334 25,200  Level Winnipeg Center
Thu 06:12:49 PM 51.4500 -97.2667 173° South 290 334 25,200  Level Winnipeg Center
Thu 06:13:49 PM 51.3667 -97.2333 166° South 290 334 25,200 -50 Level Winnipeg Center
Thu 06:14:49 PM 51.2833 -97.2000 166° South 290 334 25,100  Descending Winnipeg Center
Thu 06:15:49 PM 51.2000 -97.2000 180° South 290 334 25,200 -250 Climbing Winnipeg Center
Thu 06:16:49 PM 51.1333 -97.1833 171° South 290 334 24,600 -850 Descending Winnipeg Center
Thu 06:17:49 PM 51.0500 -97.1500 166° South 310 357 23,500 -1,200 Descending Winnipeg Center
Thu 06:18:49 PM 50.9500 -97.1167 168° South 320 368 22,200 -1,350 Descending Winnipeg Center
Thu 06:19:49 PM 50.8667 -97.1167 180° South 320 368 20,800 -1,400 Descending Winnipeg Center
Thu 06:20:49 PM 50.7667 -97.1000 174° South 320 368 19,400 -1,450 Descending Winnipeg Center
Thu 06:21:49 PM 50.6833 -97.0667 166° South 320 368 17,900 -1,300 Descending Winnipeg Center
Thu 06:22:49 PM 50.6000 -97.0667 180° South 310 357 16,800 -1,350 Descending Winnipeg Center
Thu 06:23:49 PM 50.5167 -97.0667 180° South 310 357 15,200 -1,600 Descending Winnipeg Center
Thu 06:24:49 PM 50.4333 -97.0500 173° South 300 345 13,600 -1,800 Descending Winnipeg Center
Thu 06:25:49 PM 50.3500 -97.0167 166° South 300 345 11,600 -2,100 Descending Winnipeg Center
Thu 06:26:49 PM 50.2667 -97.0167 180° South 300 345 9,400 -2,100 Descending Winnipeg Center
Thu 06:27:49 PM 50.1833 -97.0167 180° South 290 334 7,400 -1,700 Descending Winnipeg Center
Thu 06:28:49 PM 50.1167 -97.0167 180° South 270 311 6,000 -1,500 Descending Winnipeg Center
Thu 06:29:49 PM 50.0333 -97.0500 194° South 260 299 4,400 -1,250 Descending Winnipeg Center
Thu 06:30:49 PM 49.9667 -97.0500 180° South 230 265 3,500 -800 Descending Winnipeg Center
Thu 06:31:49 PM 49.9167 -97.1000 213° Southwest 210 242 2,800 -500 Descending Winnipeg Center
Thu 06:32:49 PM 49.8833 -97.1500 224° Southwest 180 207 2,500 -650 Descending Winnipeg Center
Thu 06:33:49 PM 49.8667 -97.2000 243° Southwest 120 138 1,500 -850 Descending Winnipeg Center
Thu 06:34:49 PM 49.8833 -97.2333 308° West 90 104 800 -350 Descending Winnipeg Center
Thu 06:35:49 PM 49.8833 -97.2333 308° West 10 12 800  Level Winnipeg Center
Thu 06:36:49 PM 49.8833 -97.2333 308° West 20 23 800  Level Winnipeg Center
Thu 06:38:38 PM 49.8833 -97.2333 308° West 10 12 800  Level Winnipeg Center

Login

Don't have an account? Register now (free) for customized features, flight alerts, and more!